Time;durP1;ratioP1;P1;durP2;ratioP2;P2;SDS_P1;SDS_P2;PMS_P1;PMS_P2;Temp;Humidity;BMP_temperature;BMP_pressure;BME280_temperature;BME280_humidity;BME280_pressure;Samples;Min_cycle;Max_cycle;Signal;HPM_P1;HPM_P2
2023/05/18 00:01:48;;;;;;;1.90;1.25;;;;;;;36.64;21.44;100291.19;4855953;29;20057;-77
2023/05/18 00:04:17;;;;;;;1.77;1.33;;;;;;;36.58;22.37;100291.69;4841993;29;20149;-76
2023/05/18 00:06:49;;;;;;;2.65;1.35;;;;;;;36.49;23.95;100296.91;4854696;29;20503;-78
2023/05/18 00:09:17;;;;;;;2.10;1.33;;;;;;;36.36;21.94;100292.72;4850176;29;20053;-77
2023/05/18 00:11:46;;;;;;;1.92;1.42;;;;;;;36.30;20.29;100290.56;4858857;29;20389;-80
2023/05/18 00:14:15;;;;;;;6.28;1.40;;;;;;;36.24;20.13;100290.09;4848448;29;20046;-78
2023/05/18 00:16:43;;;;;;;4.50;1.38;;;;;;;36.15;20.42;100284.63;4845499;29;20137;-78
2023/05/18 00:19:19;;;;;;;2.63;1.20;;;;;;;36.07;22.65;100283.41;4849542;29;20041;-76
2023/05/18 00:21:49;;;;;;;2.95;1.23;;;;;;;35.99;23.49;100283.22;4858340;29;20097;-76
2023/05/18 00:24:19;;;;;;;2.85;1.48;;;;;;;35.95;21.69;100278.25;4859231;29;20114;-80
2023/05/18 00:26:49;;;;;;;3.75;1.45;;;;;;;35.86;21.82;100279.88;4865638;29;20096;-76
2023/05/18 00:29:18;;;;;;;2.15;1.48;;;;;;;35.81;21.64;100274.03;4845543;29;20058;-76
2023/05/18 00:31:47;;;;;;;2.22;1.25;;;;;;;35.76;20.54;100268.16;4862755;29;20113;-80
2023/05/18 00:34:16;;;;;;;4.47;1.33;;;;;;;35.69;20.35;100262.47;4859043;29;20042;-78
2023/05/18 00:36:45;;;;;;;4.35;1.30;;;;;;;35.59;21.70;100261.47;4842376;29;20121;-77
2023/05/18 00:39:15;;;;;;;1.42;1.20;;;;;;;35.55;21.82;100258.19;4843165;29;20050;-77
2023/05/18 00:41:45;;;;;;;1.65;1.30;;;;;;;35.48;20.83;100259.66;4857977;29;20523;-77
2023/05/18 00:44:14;;;;;;;1.63;1.20;;;;;;;35.36;20.01;100250.78;4849102;29;20050;-79
2023/05/18 00:46:43;;;;;;;1.92;1.40;;;;;;;35.28;22.59;100257.78;4859242;29;20064;-76
2023/05/18 00:49:12;;;;;;;1.40;1.30;;;;;;;35.27;22.18;100256.06;4852471;29;20131;-77
2023/05/18 00:51:42;;;;;;;1.73;1.30;;;;;;;35.26;22.83;100251.69;4856529;29;20053;-76
2023/05/18 00:54:11;;;;;;;3.22;1.42;;;;;;;35.19;23.38;100244.13;4850644;29;20061;-76
2023/05/18 00:56:45;;;;;;;1.65;1.20;;;;;;;35.19;21.49;100246.81;4843430;29;20058;-76
2023/05/18 00:59:14;;;;;;;3.72;1.50;;;;;;;35.23;21.84;100250.09;4850010;29;20045;-76
2023/05/18 01:01:45;;;;;;;3.13;1.20;;;;;;;35.23;22.93;100247.41;4849574;29;20096;-78
2023/05/18 01:04:14;;;;;;;3.15;1.40;;;;;;;35.14;22.76;100248.16;4840260;29;20058;-77
2023/05/18 01:06:45;;;;;;;2.80;1.38;;;;;;;35.11;21.09;100240.31;4848505;29;20057;-76
2023/05/18 01:09:15;;;;;;;3.13;1.63;;;;;;;35.09;22.26;100239.56;4841924;29;20661;-75
2023/05/18 01:11:58;;;;;;;1.98;1.23;;;;;;;35.09;23.05;100243.13;4850159;29;20057;-75
2023/05/18 01:14:35;;;;;;;3.88;1.45;;;;;;;35.05;22.49;100236.31;4852524;29;20508;-75
2023/05/18 01:17:13;;;;;;;2.80;1.60;;;;;;;34.98;23.10;100237.75;4857139;29;20060;-76
2023/05/18 01:20:16;;;;;;;2.83;1.52;;;;;;;34.93;24.31;100238.13;4855057;29;20137;-75
2023/05/18 01:23:14;;;;;;;3.58;1.30;;;;;;;34.90;24.43;100229.47;4837350;29;20196;-75
2023/05/18 01:25:52;;;;;;;3.30;1.38;;;;;;;34.86;23.49;100230.69;4853607;29;20580;-75
2023/05/18 01:28:26;;;;;;;2.08;1.52;;;;;;;34.80;22.72;100230.22;4845508;29;20066;-76
2023/05/18 01:30:55;;;;;;;2.25;1.70;;;;;;;34.74;21.36;100225.34;4837424;29;20662;-76
2023/05/18 01:33:24;;;;;;;3.13;1.40;;;;;;;34.68;24.07;100223.13;4835186;29;20109;-76
2023/05/18 01:35:53;;;;;;;3.78;1.30;;;;;;;34.65;27.14;100222.53;4864575;29;20072;-77
2023/05/18 01:38:25;;;;;;;3.97;1.25;;;;;;;34.58;25.63;100224.81;4862396;29;20510;-75
2023/05/18 01:41:02;;;;;;;1.73;1.30;;;;;;;34.50;25.93;100227.25;4856486;29;20060;-75
2023/05/18 01:43:43;;;;;;;3.70;1.92;;;;;;;34.40;25.80;100219.91;4854843;29;20144;-75
2023/05/18 01:46:16;;;;;;;;;;;;;;;34.30;24.91;100221.63;4854874;29;20068;-74
2023/05/18 01:48:49;;;;;;;1.75;1.40;;;;;;;34.29;23.83;100219.06;4853821;29;20022;-76
2023/05/18 01:51:21;;;;;;;1.60;1.50;;;;;;;34.26;23.53;100217.47;4854774;29;20110;-76
2023/05/18 01:53:57;;;;;;;2.83;1.88;;;;;;;34.19;24.27;100221.63;4855683;29;20472;-74
2023/05/18 01:56:26;;;;;;;1.83;1.50;;;;;;;34.14;25.34;100226.50;4865784;29;20060;-77
2023/05/18 01:58:57;;;;;;;4.35;1.73;;;;;;;34.10;25.14;100222.34;4866766;29;20063;-78
2023/05/18 02:01:26;;;;;;;2.17;1.40;;;;;;;33.99;25.89;100213.28;4853840;29;20065;-77
2023/05/18 02:03:55;;;;;;;2.70;1.65;;;;;;;33.94;25.27;100217.28;4862941;29;20534;-78
2023/05/18 02:06:23;;;;;;;2.20;1.58;;;;;;;33.87;24.19;100221.41;4865862;29;20068;-78
2023/05/18 02:08:52;;;;;;;3.60;1.90;;;;;;;33.80;24.41;100223.69;4854060;29;20575;-78
2023/05/18 02:11:21;;;;;;;1.75;1.35;;;;;;;33.76;25.34;100219.53;4855452;29;20053;-77
2023/05/18 02:13:50;;;;;;;2.80;1.45;;;;;;;33.71;24.82;100227.94;4855044;29;20054;-78
2023/05/18 02:16:20;;;;;;;2.40;1.40;;;;;;;33.64;26.56;100223.16;4866428;29;20101;-77
2023/05/18 02:18:49;;;;;;;2.67;1.40;;;;;;;33.57;26.03;100223.59;4851076;29;20111;-77
2023/05/18 02:21:17;;;;;;;3.55;1.70;;;;;;;33.50;28.73;100225.00;4855383;29;20799;-77
2023/05/18 02:23:46;;;;;;;2.13;1.63;;;;;;;33.43;27.79;100229.13;4850916;29;20516;-76
2023/05/18 02:26:14;;;;;;;2.63;1.55;;;;;;;33.34;28.17;100224.44;4852781;29;20086;-77
2023/05/18 02:28:43;;;;;;;3.05;1.67;;;;;;;33.22;28.41;100220.00;4848247;29;20058;-78
2023/05/18 02:31:13;;;;;;;3.20;1.48;;;;;;;33.18;29.86;100228.25;4836091;29;20702;-77
2023/05/18 02:33:43;;;;;;;4.40;1.67;;;;;;;33.08;28.95;100229.03;4836252;29;20679;-79
2023/05/18 02:36:13;;;;;;;1.98;1.67;;;;;;;32.97;28.59;100227.97;4820304;29;20053;-78
2023/05/18 02:38:44;;;;;;;3.65;2.00;;;;;;;32.83;28.64;100225.44;4820851;29;20058;-78
2023/05/18 02:41:12;;;;;;;2.75;1.92;;;;;;;32.71;27.96;100226.31;4832005;29;20448;-79
2023/05/18 02:43:41;;;;;;;2.55;1.83;;;;;;;32.62;28.46;100221.63;4830108;29;20133;-77
2023/05/18 02:46:10;;;;;;;2.05;1.35;;;;;;;32.54;27.45;100225.69;4826448;29;20065;-77
2023/05/18 02:48:38;;;;;;;4.25;1.63;;;;;;;32.47;27.98;100235.09;4825556;29;20069;-78
2023/05/18 02:51:09;;;;;;;2.97;1.48;;;;;;;32.39;29.15;100231.25;4826084;29;20050;-77
2023/05/18 02:53:37;;;;;;;2.55;1.90;;;;;;;32.29;28.69;100226.53;4826532;29;20062;-79
2023/05/18 02:56:07;;;;;;;2.25;1.80;;;;;;;32.20;29.21;100232.53;4823714;29;20065;-79
2023/05/18 02:58:35;;;;;;;2.50;1.70;;;;;;;32.08;29.21;100234.25;4825249;29;20069;-77
2023/05/18 03:01:13;;;;;;;3.22;1.83;;;;;;;31.95;30.04;100233.31;4838232;29;20054;-77
2023/05/18 03:03:42;;;;;;;5.00;1.75;;;;;;;31.81;30.99;100239.63;4829535;29;20057;-77
2023/05/18 03:06:12;;;;;;;3.55;2.20;;;;;;;31.70;31.83;100239.47;4836173;29;20498;-76
2023/05/18 03:08:41;;;;;;;4.20;1.83;;;;;;;31.58;31.22;100242.97;4833838;29;20136;-75
2023/05/18 03:11:10;;;;;;;3.63;1.60;;;;;;;31.47;31.50;100255.25;4837372;29;20050;-76
2023/05/18 03:13:38;;;;;;;2.20;1.70;;;;;;;31.37;31.96;100243.41;4833424;29;20052;-76
2023/05/18 03:16:07;;;;;;;4.00;1.80;;;;;;;31.29;32.48;100253.72;4835045;29;20061;-76
2023/05/18 03:18:36;;;;;;;3.42;1.88;;;;;;;31.18;32.33;100258.94;4834345;29;20046;-76
2023/05/18 03:21:04;;;;;;;4.43;1.90;;;;;;;31.08;32.37;100254.19;4839666;29;20053;-76
2023/05/18 03:23:35;;;;;;;3.33;1.70;;;;;;;30.97;33.05;100259.34;4842333;29;20050;-77
2023/05/18 03:26:09;;;;;;;3.25;1.90;;;;;;;30.87;32.91;100260.88;4827817;29;20050;-76
2023/05/18 03:28:38;;;;;;;3.65;2.20;;;;;;;30.78;33.00;100267.63;4845509;29;20062;-76
2023/05/18 03:31:07;;;;;;;2.65;1.88;;;;;;;30.68;33.50;100255.81;4853076;29;20144;-76
2023/05/18 03:33:36;;;;;;;3.90;2.30;;;;;;;30.59;33.28;100267.06;4866842;29;20060;-77
2023/05/18 03:36:05;;;;;;;3.17;2.15;;;;;;;30.50;33.58;100263.16;4858630;29;20544;-76
2023/05/18 03:38:36;;;;;;;5.53;2.00;;;;;;;30.41;34.26;100261.03;4864387;29;20061;-75
2023/05/18 03:41:05;;;;;;;4.97;2.10;;;;;;;30.33;34.35;100271.31;4855996;29;20079;-74
2023/05/18 03:43:34;;;;;;;2.40;2.10;;;;;;;30.23;34.27;100271.84;4869870;29;20053;-75
2023/05/18 03:46:02;;;;;;;3.67;2.42;;;;;;;30.14;33.87;100269.72;4863115;29;20454;-74
2023/05/18 03:48:31;;;;;;;5.63;2.80;;;;;;;30.05;34.27;100273.81;4857162;29;20041;-76
2023/05/18 03:50:59;;;;;;;7.18;2.92;;;;;;;29.97;34.25;100276.06;4861877;29;20522;-74
2023/05/18 03:53:28;;;;;;;4.82;3.22;;;;;;;29.89;34.57;100280.97;4858569;29;20057;-77
2023/05/18 03:55:58;;;;;;;8.85;3.03;;;;;;;29.80;34.68;100277.06;4858380;29;20056;-74
2023/05/18 03:58:28;;;;;;;7.18;3.58;;;;;;;29.71;34.50;100282.94;4852477;29;20464;-73
2023/05/18 04:00:56;;;;;;;8.65;2.90;;;;;;;29.63;34.85;100277.16;4861383;29;20053;-75
2023/05/18 04:03:25;;;;;;;9.15;3.75;;;;;;;29.55;35.23;100279.38;4857465;29;20497;-75
2023/05/18 04:05:54;;;;;;;3.65;2.72;;;;;;;29.44;35.61;100282.69;4854079;29;20052;-74
2023/05/18 04:08:24;;;;;;;7.20;2.80;;;;;;;29.36;36.13;100283.09;4853619;29;20136;-75
2023/05/18 04:10:53;;;;;;;5.10;2.97;;;;;;;29.27;36.80;100296.94;4857567;29;20052;-76
2023/05/18 04:13:23;;;;;;;3.65;2.53;;;;;;;29.16;36.67;100286.00;4861241;29;20105;-76
2023/05/18 04:15:52;;;;;;;5.50;2.67;;;;;;;29.07;36.72;100294.47;4866545;29;20073;-76
2023/05/18 04:18:21;;;;;;;6.80;2.80;;;;;;;28.97;37.00;100294.13;4857871;29;20057;-75
2023/05/18 04:20:49;;;;;;;2.88;2.17;;;;;;;28.87;37.08;100293.78;4856967;29;20050;-76
2023/05/18 04:23:18;;;;;;;3.45;2.10;;;;;;;28.77;36.85;100285.44;4859430;29;20057;-74
2023/05/18 04:25:48;;;;;;;4.55;2.55;;;;;;;28.69;37.12;100289.44;4864386;29;20078;-75
2023/05/18 04:28:16;;;;;;;2.83;2.05;;;;;;;28.60;36.91;100290.78;4859613;29;20084;-74
2023/05/18 04:30:46;;;;;;;4.72;2.30;;;;;;;28.52;37.24;100292.97;4856784;29;20046;-74
2023/05/18 04:33:16;;;;;;;3.95;2.30;;;;;;;28.44;37.51;100301.34;4867958;29;20049;-73
2023/05/18 04:35:45;;;;;;;4.93;2.15;;;;;;;28.35;37.57;100294.69;4847258;29;20100;-74
2023/05/18 04:38:13;;;;;;;5.13;2.78;;;;;;;28.29;37.70;100302.13;4847798;29;20054;-75
2023/05/18 04:40:42;;;;;;;3.58;2.15;;;;;;;28.21;37.75;100305.19;4858596;29;20438;-75
2023/05/18 04:43:11;;;;;;;3.90;2.33;;;;;;;28.14;38.43;100304.63;4852142;29;20079;-75
2023/05/18 04:45:40;;;;;;;4.93;2.35;;;;;;;28.08;38.80;100304.94;4851373;29;20437;-75
2023/05/18 04:48:10;;;;;;;4.20;2.55;;;;;;;28.01;38.34;100303.53;4846035;29;20049;-77
2023/05/18 04:50:39;;;;;;;8.40;2.38;;;;;;;27.98;38.54;100309.00;4856740;29;20445;-76
2023/05/18 04:53:16;;;;;;;4.40;2.42;;;;;;;27.90;38.62;100317.38;4852452;29;20504;-75
2023/05/18 04:55:45;;;;;;;4.38;2.53;;;;;;;27.86;38.63;100312.28;4858177;29;20511;-78
2023/05/18 04:58:14;;;;;;;5.60;2.70;;;;;;;27.78;38.91;100318.78;4857905;29;20056;-75
2023/05/18 05:00:43;;;;;;;4.18;2.60;;;;;;;27.74;39.21;100319.00;4851876;29;20053;-76
2023/05/18 05:03:13;;;;;;;13.50;2.50;;;;;;;27.69;39.22;100318.38;4854775;29;20045;-76
2023/05/18 05:05:42;;;;;;;3.85;3.03;;;;;;;27.62;39.40;100320.47;4852571;29;20050;-76
2023/05/18 05:08:10;;;;;;;4.25;2.58;;;;;;;27.57;39.76;100326.00;4856080;29;20046;-76
2023/05/18 05:10:39;;;;;;;3.78;2.33;;;;;;;27.54;40.64;100327.97;4851693;29;20102;-76
2023/05/18 05:13:08;;;;;;;3.05;2.38;;;;;;;27.47;40.10;100323.88;4855674;29;20050;-75
2023/05/18 05:15:37;;;;;;;3.53;2.30;;;;;;;27.39;40.79;100341.97;4850436;29;20426;-75
2023/05/18 05:18:05;;;;;;;3.45;2.30;;;;;;;27.31;39.45;100334.38;4853557;29;20148;-74
2023/05/18 05:20:36;;;;;;;3.00;2.08;;;;;;;27.24;38.25;100328.47;4849218;29;20049;-75
2023/05/18 05:23:07;;;;;;;3.35;2.05;;;;;;;27.24;38.43;100333.78;4850160;29;20046;-77
2023/05/18 05:25:35;;;;;;;2.58;2.30;;;;;;;27.27;41.76;100338.09;4855519;29;20045;-75
2023/05/18 05:28:04;;;;;;;3.38;2.25;;;;;;;27.24;40.22;100336.44;4855467;29;20606;-75
2023/05/18 05:30:33;;;;;;;3.97;2.15;;;;;;;27.22;41.31;100340.97;4853364;29;20057;-76
2023/05/18 05:33:01;;;;;;;3.13;2.63;;;;;;;27.20;41.44;100339.28;4857516;29;20057;-75
2023/05/18 05:35:30;;;;;;;6.00;2.40;;;;;;;27.15;42.33;100340.34;4846838;29;20058;-76
2023/05/18 05:38:00;;;;;;;4.35;2.45;;;;;;;27.10;42.05;100346.81;4844742;29;20073;-75
2023/05/18 05:40:29;;;;;;;5.25;2.38;;;;;;;27.04;42.68;100344.44;4842845;29;20505;-74
2023/05/18 05:42:57;;;;;;;6.95;2.50;;;;;;;26.95;42.82;100349.22;4854282;29;20075;-75
2023/05/18 05:45:27;;;;;;;6.95;2.50;;;;;;;26.84;42.67;100346.19;4858258;29;20054;-74
2023/05/18 05:47:55;;;;;;;9.02;2.70;;;;;;;26.71;43.66;100351.19;4844915;29;20049;-76
2023/05/18 05:50:24;;;;;;;3.88;2.60;;;;;;;26.60;44.52;100355.25;4851928;29;20060;-76
2023/05/18 05:52:52;;;;;;;6.72;2.20;;;;;;;26.46;44.14;100361.97;4847800;29;20054;-77
2023/05/18 05:55:23;;;;;;;4.25;2.05;;;;;;;26.35;44.59;100366.00;4852787;29;20050;-76
2023/05/18 05:57:51;;;;;;;5.22;2.05;;;;;;;26.28;45.14;100365.41;4859597;29;20086;-76
2023/05/18 06:00:20;;;;;;;3.97;2.17;;;;;;;26.07;45.71;100368.03;4858692;29;20053;-76
2023/05/18 06:02:49;;;;;;;5.65;2.28;;;;;;;25.93;46.24;100373.03;4848797;29;20064;-77
2023/05/18 06:05:17;;;;;;;7.55;2.75;;;;;;;25.84;47.19;100368.06;4851955;29;20492;-76
2023/05/18 06:07:46;;;;;;;6.18;2.45;;;;;;;25.64;46.58;100376.78;4856573;29;20074;-76
2023/05/18 06:10:15;;;;;;;3.53;1.67;;;;;;;25.51;46.48;100376.38;4850717;29;20110;-76
2023/05/18 06:12:45;;;;;;;7.85;2.42;;;;;;;25.45;47.43;100376.66;4854139;29;20045;-74
2023/05/18 06:15:15;;;;;;;4.65;2.00;;;;;;;25.37;48.20;100382.22;4855045;29;20109;-75
2023/05/18 06:17:44;;;;;;;5.95;1.90;;;;;;;25.14;48.40;100393.63;4845966;29;20061;-74
2023/05/18 06:20:16;;;;;;;4.47;1.88;;;;;;;25.04;47.53;100386.97;4845901;29;20081;-75
2023/05/18 06:22:45;;;;;;;3.78;1.92;;;;;;;24.90;47.65;100394.50;4848873;29;20065;-75
2023/05/18 06:25:23;;;;;;;4.82;1.80;;;;;;;24.75;46.71;100391.50;4854295;29;20397;-75
2023/05/18 06:27:53;;;;;;;7.13;2.10;;;;;;;24.58;47.08;100393.84;4853804;29;20107;-75
2023/05/18 06:30:28;;;;;;;3.15;2.17;;;;;;;24.41;47.06;100394.41;4847065;29;20412;-74
2023/05/18 06:32:57;;;;;;;3.10;1.42;;;;;;;24.29;47.51;100400.97;4855761;29;20133;-74
2023/05/18 06:35:25;;;;;;;3.97;1.67;;;;;;;24.15;47.08;100401.41;4847275;29;20061;-75
2023/05/18 06:37:54;;;;;;;3.70;1.40;;;;;;;24.04;47.17;100412.31;4832736;29;20123;-75
2023/05/18 06:40:22;;;;;;;3.13;1.50;;;;;;;23.94;46.98;100408.25;4835143;29;20050;-74
2023/05/18 06:42:52;;;;;;;5.35;1.60;;;;;;;23.86;47.33;100409.41;4842250;29;20053;-74
2023/05/18 06:45:21;;;;;;;3.15;1.63;;;;;;;23.73;48.69;100419.44;4838100;29;20062;-77
2023/05/18 06:47:49;;;;;;;5.00;1.52;;;;;;;23.58;48.36;100415.50;4848450;29;20061;-75
2023/05/18 06:50:18;;;;;;;10.57;2.15;;;;;;;23.51;47.18;100419.22;4838170;29;20059;-74
2023/05/18 06:52:53;;;;;;;3.88;1.80;;;;;;;23.44;48.17;100421.19;4841904;29;20106;-74
2023/05/18 06:55:22;;;;;;;3.22;1.50;;;;;;;23.34;47.61;100425.88;4828672;29;20154;-74
2023/05/18 06:57:55;;;;;;;3.88;1.55;;;;;;;23.29;49.13;100429.53;4840742;29;20050;-74
2023/05/18 07:00:24;;;;;;;2.95;1.60;;;;;;;23.26;50.28;100435.75;4829220;29;20050;-74
2023/05/18 07:02:52;;;;;;;2.25;1.45;;;;;;;23.23;50.69;100440.25;4832451;29;20058;-75
2023/05/18 07:05:22;;;;;;;4.30;1.60;;;;;;;23.17;49.72;100436.88;4830173;29;20050;-76
2023/05/18 07:07:50;;;;;;;8.52;1.42;;;;;;;23.12;49.77;100444.06;4844124;29;20050;-74
2023/05/18 07:10:20;;;;;;;5.68;2.35;;;;;;;23.09;49.97;100438.00;4836003;29;20488;-75
2023/05/18 07:12:48;;;;;;;4.72;1.88;;;;;;;23.03;49.84;100440.81;4832867;29;20050;-75
2023/05/18 07:15:18;;;;;;;3.45;1.70;;;;;;;22.96;49.63;100437.44;4844156;29;20106;-74
2023/05/18 07:17:47;;;;;;;6.40;1.70;;;;;;;22.85;50.20;100444.78;4834647;29;20054;-74
2023/05/18 07:20:15;;;;;;;2.63;1.60;;;;;;;22.74;52.70;100451.16;4837661;29;20062;-74
2023/05/18 07:22:44;;;;;;;2.25;1.30;;;;;;;22.66;52.95;100442.59;4845329;29;20053;-74
2023/05/18 07:25:13;;;;;;;4.10;1.58;;;;;;;22.60;53.39;100450.66;4837325;29;20099;-75
2023/05/18 07:27:41;;;;;;;5.43;1.70;;;;;;;22.54;53.49;100446.44;4833091;29;20062;-74
2023/05/18 07:30:17;;;;;;;4.88;1.60;;;;;;;22.47;53.35;100446.59;4850417;29;20065;-73
2023/05/18 07:32:50;;;;;;;3.70;1.73;;;;;;;22.38;53.96;100445.94;4866350;29;20056;-72
2023/05/18 07:35:20;;;;;;;4.90;1.90;;;;;;;22.30;54.25;100457.56;4866446;29;20058;-76
2023/05/18 07:37:48;;;;;;;3.40;1.85;;;;;;;22.14;53.86;100451.75;4857978;29;20057;-76
2023/05/18 07:40:17;;;;;;;4.60;1.85;;;;;;;22.07;53.61;100448.38;4863400;29;20138;-74
2023/05/18 07:42:46;;;;;;;2.55;1.70;;;;;;;22.02;53.51;100450.25;4864310;29;20081;-74
2023/05/18 07:45:14;;;;;;;2.70;1.90;;;;;;;21.96;53.36;100453.88;4851658;29;20105;-74
2023/05/18 07:47:43;;;;;;;7.13;1.60;;;;;;;21.87;52.65;100459.34;4856997;29;20074;-74
2023/05/18 07:50:13;;;;;;;2.90;1.50;;;;;;;21.75;52.47;100460.50;4853199;29;20046;-74
2023/05/18 07:52:42;;;;;;;4.15;1.80;;;;;;;21.60;52.96;100475.75;4849452;29;20056;-73
2023/05/18 07:55:11;;;;;;;5.75;1.45;;;;;;;21.44;53.68;100476.06;4847350;29;20547;-74
2023/05/18 07:57:40;;;;;;;4.45;1.92;;;;;;;21.33;53.58;100480.63;4853000;29;20053;-75
2023/05/18 08:00:10;;;;;;;3.13;1.63;;;;;;;21.19;53.82;100487.91;4859997;29;20102;-75
2023/05/18 08:02:38;;;;;;;3.08;1.75;;;;;;;21.07;55.07;100491.63;4849056;29;20041;-76
2023/05/18 08:05:09;;;;;;;1.70;1.20;;;;;;;20.92;55.00;100492.78;4852295;29;20046;-74
2023/05/18 08:07:40;;;;;;;2.78;1.70;;;;;;;20.83;54.96;100499.06;4850308;29;20101;-75
2023/05/18 08:10:09;;;;;;;4.07;1.65;;;;;;;20.76;55.24;100501.81;4847022;29;20056;-74
2023/05/18 08:12:37;;;;;;;3.25;1.85;;;;;;;20.71;55.92;100499.28;4851152;29;20049;-75
2023/05/18 08:15:07;;;;;;;3.85;1.40;;;;;;;20.68;55.72;100508.09;4852040;29;20049;-74
2023/05/18 08:17:35;;;;;;;5.82;1.90;;;;;;;20.62;55.81;100505.53;4857494;29;20053;-73
2023/05/18 08:20:04;;;;;;;2.92;1.45;;;;;;;20.55;56.43;100508.25;4853762;29;20054;-72
2023/05/18 08:22:33;;;;;;;3.40;1.48;;;;;;;20.47;56.80;100508.38;4851103;29;20053;-73
2023/05/18 08:25:03;;;;;;;5.13;1.75;;;;;;;20.37;56.58;100510.28;4857773;29;20049;-72
2023/05/18 08:27:32;;;;;;;4.85;1.58;;;;;;;20.32;56.55;100508.59;4853498;29;20046;-73
2023/05/18 08:30:00;;;;;;;2.42;1.73;;;;;;;20.27;57.56;100517.44;4856189;29;20084;-73
2023/05/18 08:32:29;;;;;;;2.95;1.45;;;;;;;20.17;57.55;100517.56;4860633;29;20125;-72
2023/05/18 08:34:57;;;;;;;3.60;1.58;;;;;;;20.09;57.71;100509.81;4869185;29;20515;-72
2023/05/18 08:37:28;;;;;;;1.08;0.98;;;;;;;20.00;58.12;100516.03;4859593;29;20053;-73
2023/05/18 08:39:58;;;;;;;4.50;1.13;;;;;;;19.91;59.11;100520.56;4858930;29;20054;-74
2023/05/18 08:42:34;;;;;;;2.25;1.10;;;;;;;19.81;59.47;100519.78;4857089;29;20053;-72
2023/05/18 08:45:11;;;;;;;4.47;1.15;;;;;;;19.66;59.76;100521.66;4857002;29;20041;-72
2023/05/18 08:47:40;;;;;;;1.50;1.30;;;;;;;19.58;60.56;100527.88;4856725;29;20056;-73
2023/05/18 08:50:14;;;;;;;3.00;1.65;;;;;;;19.48;60.88;100531.50;4872598;29;20090;-73
2023/05/18 08:52:47;;;;;;;2.83;1.20;;;;;;;19.39;62.23;100537.72;4857650;29;20511;-74
2023/05/18 08:55:17;;;;;;;2.13;1.08;;;;;;;19.32;61.81;100536.91;4855371;29;20070;-73
2023/05/18 08:57:54;;;;;;;1.67;1.17;;;;;;;19.28;62.43;100537.81;4857554;29;20085;-72
2023/05/18 09:00:23;;;;;;;2.13;1.33;;;;;;;19.20;62.72;100540.53;4854863;29;20046;-73
2023/05/18 09:02:52;;;;;;;3.65;1.48;;;;;;;19.12;63.36;100537.09;4856353;29;20075;-72
2023/05/18 09:05:21;;;;;;;6.97;1.50;;;;;;;19.08;64.19;100540.66;4855954;29;20057;-73
2023/05/18 09:07:51;;;;;;;5.97;1.20;;;;;;;19.04;63.32;100552.03;4856685;29;20568;-73
2023/05/18 09:10:20;;;;;;;1.70;1.00;;;;;;;19.02;63.59;100548.56;4857277;29;20109;-73
2023/05/18 09:12:51;;;;;;;1.40;0.90;;;;;;;18.96;64.26;100549.47;4861426;29;20052;-73
2023/05/18 09:15:20;;;;;;;3.33;1.25;;;;;;;18.88;64.82;100551.28;4855173;29;20106;-73
2023/05/18 09:17:49;;;;;;;5.05;1.52;;;;;;;18.82;65.21;100548.72;4868646;29;20049;-74
2023/05/18 09:20:18;;;;;;;2.47;1.00;;;;;;;18.75;65.38;100550.47;4859092;29;20060;-74
2023/05/18 09:22:50;;;;;;;1.30;0.80;;;;;;;18.66;65.94;100544.44;4859616;29;20045;-72
2023/05/18 09:25:19;;;;;;;4.30;1.08;;;;;;;18.68;66.16;100555.78;4859516;29;20053;-73
2023/05/18 09:27:52;;;;;;;2.88;1.20;;;;;;;18.60;66.15;100553.22;4867438;29;20686;-72
2023/05/18 09:30:20;;;;;;;2.35;1.15;;;;;;;18.57;66.45;100554.09;4859385;29;20141;-73
2023/05/18 09:32:49;;;;;;;2.00;1.23;;;;;;;18.53;66.68;100560.25;4868834;29;20507;-74
2023/05/18 09:35:17;;;;;;;2.97;1.55;;;;;;;18.48;67.00;100554.16;4848145;29;20053;-73
2023/05/18 09:37:46;;;;;;;3.65;1.08;;;;;;;18.42;67.87;100559.44;4846838;29;20577;-73
2023/05/18 09:40:15;;;;;;;2.30;1.30;;;;;;;18.40;68.12;100563.81;4842601;29;20054;-73
2023/05/18 09:42:45;;;;;;;2.78;1.02;;;;;;;18.36;67.89;100559.47;4854926;29;20056;-74
2023/05/18 09:45:19;;;;;;;2.47;1.20;;;;;;;18.32;68.68;100565.59;4849707;29;20049;-73
2023/05/18 09:47:50;;;;;;;1.52;0.80;;;;;;;18.29;68.79;100563.00;4846423;29;20053;-73
2023/05/18 09:50:20;;;;;;;1.50;1.10;;;;;;;18.24;68.65;100567.41;4843389;29;20050;-73
2023/05/18 09:52:49;;;;;;;2.40;1.20;;;;;;;18.21;69.05;100566.53;4851004;29;20058;-73
2023/05/18 09:55:19;;;;;;;2.17;1.27;;;;;;;18.15;69.07;100563.94;4857260;29;20085;-73
2023/05/18 09:57:49;;;;;;;1.63;0.98;;;;;;;18.12;69.76;100571.81;4850862;29;20053;-73
2023/05/18 10:00:20;;;;;;;1.70;1.13;;;;;;;18.08;70.07;100567.47;4856048;29;20053;-73
2023/05/18 10:02:51;;;;;;;1.50;1.00;;;;;;;18.07;70.10;100573.56;4858031;29;20084;-73
2023/05/18 10:05:25;;;;;;;5.35;1.25;;;;;;;18.05;70.28;100567.50;4858283;29;20050;-73
2023/05/18 10:07:55;;;;;;;2.05;1.02;;;;;;;18.04;70.22;100570.97;4854926;29;20102;-73
2023/05/18 10:10:26;;;;;;;1.45;1.08;;;;;;;18.00;71.26;100575.38;4866511;29;20176;-73
2023/05/18 10:12:57;;;;;;;1.75;1.02;;;;;;;17.93;71.16;100591.94;4851362;29;20050;-72
2023/05/18 10:15:27;;;;;;;1.27;0.95;;;;;;;17.82;71.94;100590.25;4854366;29;20720;-72
2023/05/18 10:17:57;;;;;;;4.53;1.15;;;;;;;17.72;73.30;100584.13;4857469;29;20061;-73
2023/05/18 10:20:26;;;;;;;2.15;1.33;;;;;;;17.62;73.03;100593.75;4852035;29;20045;-72
2023/05/18 10:22:56;;;;;;;2.10;0.93;;;;;;;17.56;73.37;100585.91;4850312;29;20057;-72
2023/05/18 10:25:27;;;;;;;1.85;1.15;;;;;;;17.53;72.89;100588.53;4847054;29;20081;-72
2023/05/18 10:27:58;;;;;;;3.85;0.93;;;;;;;17.52;73.28;100589.41;4857383;29;20061;-73
2023/05/18 10:30:30;;;;;;;3.60;1.17;;;;;;;17.50;73.66;100585.91;4858711;29;20141;-73
2023/05/18 10:33:00;;;;;;;1.77;1.10;;;;;;;17.46;73.92;100595.53;4856868;29;20409;-73
2023/05/18 10:35:30;;;;;;;4.97;1.05;;;;;;;17.41;75.13;100593.78;4857346;29;20503;-73
2023/05/18 10:37:59;;;;;;;1.80;1.13;;;;;;;17.37;75.02;100592.91;4856928;29;20061;-72
2023/05/18 10:40:30;;;;;;;1.55;0.95;;;;;;;17.37;74.62;100593.78;4857692;29;20058;-73
2023/05/18 10:42:59;;;;;;;1.75;1.02;;;;;;;17.39;74.37;100591.19;4867700;29;20052;-73
2023/05/18 10:45:29;;;;;;;1.60;1.13;;;;;;;17.40;75.30;100586.81;4861882;29;20085;-73
2023/05/18 10:47:59;;;;;;;2.10;1.10;;;;;;;17.35;75.07;100595.53;4856954;29;20046;-73
2023/05/18 10:50:28;;;;;;;1.65;1.00;;;;;;;17.28;76.22;100606.00;4857412;29;20060;-73
2023/05/18 10:52:59;;;;;;;2.20;0.98;;;;;;;17.19;75.97;100604.25;4855899;29;20054;-73
2023/05/18 10:55:30;;;;;;;1.75;1.00;;;;;;;17.14;76.02;100600.78;4867090;29;20056;-72
2023/05/18 10:58:04;;;;;;;4.97;1.42;;;;;;;17.10;76.01;100605.13;4871953;29;20076;-72
2023/05/18 11:00:37;;;;;;;1.90;1.00;;;;;;;17.07;76.35;100607.75;4872507;29;20121;-73
2023/05/18 11:03:11;;;;;;;4.72;1.20;;;;;;;17.06;76.16;100610.34;4860244;29;20049;-73
2023/05/18 11:05:40;;;;;;;1.10;0.80;;;;;;;17.05;76.53;100617.31;4867094;29;20203;-73
2023/05/18 11:08:10;;;;;;;2.47;1.00;;;;;;;17.04;76.78;100620.81;4850641;29;20678;-72
2023/05/18 11:10:48;;;;;;;2.05;1.25;;;;;;;16.98;77.41;100623.41;4848745;29;20046;-73
2023/05/18 11:13:16;;;;;;;5.72;1.45;;;;;;;16.92;78.49;100624.28;4857601;29;20063;-72
2023/05/18 11:16:09;;;;;;;2.42;1.20;;;;;;;16.87;78.06;100623.41;4860595;29;20046;-72
2023/05/18 11:18:48;;;;;;;1.40;1.00;;;;;;;16.80;79.44;100626.00;4859294;29;20106;-74
2023/05/18 11:21:41;;;;;;;3.28;1.00;;;;;;;16.72;79.97;100625.94;4860437;29;20056;-74
2023/05/18 11:24:21;;;;;;;1.75;0.90;;;;;;;16.66;80.65;100628.56;4851230;29;20049;-73
2023/05/18 11:26:52;;;;;;;1.20;0.90;;;;;;;16.59;79.84;100632.03;4859036;29;20057;-72
2023/05/18 11:29:23;;;;;;;1.60;0.90;;;;;;;16.51;80.22;100635.47;4857842;29;20149;-72
2023/05/18 11:31:55;;;;;;;1.33;0.80;;;;;;;16.47;81.03;100632.84;4859190;29;20625;-74
2023/05/18 11:34:46;;;;;;;0.80;0.80;;;;;;;16.40;80.87;100634.59;4860090;29;20046;-75
2023/05/18 11:37:18;;;;;;;1.25;0.80;;;;;;;16.34;81.46;100642.38;4859601;29;20101;-72
2023/05/18 11:39:56;;;;;;;3.42;1.00;;;;;;;16.30;81.87;100640.63;4858959;29;20053;-72